createdAt,value
2017-09-03T00:01:33.378Z,99221.80
2017-09-03T00:04:00.966Z,99220.23
2017-09-03T00:06:32.256Z,99211.19
2017-09-03T00:09:00.124Z,99207.65
2017-09-03T00:11:27.601Z,99208.97
2017-09-03T00:13:55.069Z,99212.95
2017-09-03T00:16:22.581Z,99204.86
2017-09-03T00:18:50.059Z,99213.05
2017-09-03T00:21:17.568Z,99209.80
2017-09-03T00:23:45.837Z,99212.83
2017-09-03T00:26:13.336Z,99217.25
2017-09-03T00:28:40.823Z,99209.96
2017-09-03T00:31:08.316Z,99215.91
2017-09-03T00:33:35.794Z,99217.27
2017-09-03T00:36:03.316Z,99214.20
2017-09-03T00:38:30.794Z,99205.97
2017-09-03T00:40:58.285Z,99213.60
2017-09-03T00:43:25.806Z,99213.91
2017-09-03T00:45:53.295Z,99211.13
2017-09-03T00:48:20.781Z,99210.89
2017-09-03T00:50:48.278Z,99212.22
2017-09-03T00:53:16.054Z,99209.93
2017-09-03T00:55:43.568Z,99207.27
2017-09-03T00:58:11.019Z,99215.62
2017-09-03T01:00:38.514Z,99219.59
2017-09-03T01:03:05.990Z,99225.27
2017-09-03T01:05:33.490Z,99227.55
2017-09-03T01:08:01.024Z,99228.53
2017-09-03T01:10:28.538Z,99226.30
2017-09-03T01:12:56.003Z,99224.46
2017-09-03T01:15:23.493Z,99229.88
2017-09-03T01:17:50.979Z,99183.33
2017-09-03T01:20:18.491Z,99226.99
2017-09-03T01:22:45.945Z,99229.76
2017-09-03T01:25:13.453Z,99224.33
2017-09-03T01:27:40.937Z,99220.12
2017-09-03T01:30:08.438Z,99217.50
2017-09-03T01:32:35.923Z,99216.98
2017-09-03T01:35:03.423Z,99204.13
2017-09-03T01:37:30.928Z,99215.66
2017-09-03T01:39:58.437Z,99216.03
2017-09-03T01:42:25.914Z,99212.73
2017-09-03T01:44:53.415Z,99218.31
2017-09-03T01:47:20.865Z,99208.87
2017-09-03T01:49:48.385Z,99216.70
2017-09-03T01:52:15.839Z,99220.31
2017-09-03T01:54:43.361Z,99218.47
2017-09-03T01:57:10.875Z,99204.86
2017-09-03T01:59:38.358Z,99213.19
2017-09-03T02:02:05.857Z,99208.30
2017-09-03T02:04:33.329Z,99214.36
2017-09-03T02:07:00.831Z,99206.29
2017-09-03T02:09:28.282Z,99206.04
2017-09-03T02:11:55.797Z,99210.54
2017-09-03T02:14:23.265Z,99202.06
2017-09-03T02:16:51.018Z,99205.11
2017-09-03T02:19:18.512Z,99212.52
2017-09-03T02:21:45.990Z,99212.23
2017-09-03T02:24:13.497Z,99205.77
2017-09-03T02:26:40.974Z,99202.73
2017-09-03T02:29:08.503Z,99193.86
2017-09-03T02:31:35.971Z,99186.16
2017-09-03T02:34:04.285Z,99191.88
2017-09-03T02:36:31.755Z,99189.91
2017-09-03T02:38:59.257Z,99192.51
2017-09-03T02:41:26.748Z,99194.10
2017-09-03T02:43:54.253Z,99195.69
2017-09-03T02:46:21.763Z,99197.83
2017-09-03T02:48:49.263Z,99202.98
2017-09-03T02:51:16.756Z,99204.70
2017-09-03T02:53:44.223Z,99205.64
2017-09-03T02:56:11.726Z,99202.70
2017-09-03T02:58:39.208Z,99196.49
2017-09-03T03:01:06.690Z,99214.48
2017-09-03T03:03:39.103Z,99206.27
2017-09-03T03:06:06.603Z,99205.48
2017-09-03T03:08:35.452Z,99202.05
2017-09-03T03:11:02.959Z,99204.56
2017-09-03T03:13:30.474Z,99171.34
2017-09-03T03:16:04.811Z,99208.30
2017-09-03T03:18:32.342Z,99199.00
2017-09-03T03:20:59.838Z,99197.55
2017-09-03T03:23:27.387Z,99197.16
2017-09-03T03:25:54.888Z,99196.33
2017-09-03T03:28:22.406Z,99198.55
2017-09-03T03:30:49.901Z,99194.45
2017-09-03T03:33:17.401Z,99193.81
2017-09-03T03:35:44.885Z,99191.45
2017-09-03T03:38:13.171Z,99188.53
2017-09-03T03:40:40.653Z,99186.27
2017-09-03T03:43:08.139Z,99183.51
2017-09-03T03:45:35.619Z,99190.50
2017-09-03T03:48:03.170Z,99183.37
2017-09-03T03:50:30.635Z,99186.98
2017-09-03T03:52:58.161Z,99179.02
2017-09-03T03:55:26.156Z,99180.18
2017-09-03T03:57:53.659Z,99183.57
2017-09-03T04:00:21.121Z,99182.33
2017-09-03T04:02:48.633Z,99175.97
2017-09-03T04:05:16.090Z,99184.55
2017-09-03T04:07:43.581Z,99184.17
2017-09-03T04:10:11.043Z,99189.00
2017-09-03T04:12:39.503Z,99148.92
2017-09-03T04:15:06.962Z,99178.32
2017-09-03T04:17:34.445Z,99174.60
2017-09-03T04:20:09.775Z,99164.58
2017-09-03T04:22:37.326Z,99166.56
2017-09-03T04:25:05.026Z,99168.13
2017-09-03T04:27:32.514Z,99169.32
2017-09-03T04:29:59.984Z,99167.59
2017-09-03T04:32:27.468Z,99163.64
2017-09-03T04:34:55.029Z,99158.91
2017-09-03T04:37:22.522Z,99161.29
2017-09-03T04:39:50.030Z,99157.71
2017-09-03T04:42:17.497Z,99160.34
2017-09-03T04:44:45.021Z,99161.66
2017-09-03T04:47:12.483Z,99160.36
2017-09-03T04:49:39.989Z,99163.34
2017-09-03T04:52:07.475Z,99158.43
2017-09-03T04:54:34.975Z,99151.86
2017-09-03T04:57:02.443Z,99150.77
2017-09-03T04:59:29.968Z,99151.61
2017-09-03T05:01:57.446Z,99140.59
2017-09-03T05:04:24.934Z,99155.23
2017-09-03T05:06:52.411Z,99153.03
2017-09-03T05:09:19.945Z,99153.20
2017-09-03T05:11:47.409Z,99155.05
2017-09-03T05:14:14.877Z,99142.09
2017-09-03T05:16:42.365Z,99157.86
2017-09-03T05:19:09.827Z,99157.86
2017-09-03T05:21:37.328Z,99157.30
2017-09-03T05:24:05.404Z,99152.27
2017-09-03T05:26:32.916Z,99160.25
2017-09-03T05:29:00.391Z,99158.78
2017-09-03T05:31:27.873Z,99155.36
2017-09-03T05:33:55.335Z,99155.89
2017-09-03T05:36:22.855Z,99158.00
2017-09-03T05:38:50.749Z,99159.77
2017-09-03T05:41:18.241Z,99162.02
2017-09-03T05:43:45.714Z,99166.80
2017-09-03T05:46:13.207Z,99166.39
2017-09-03T05:48:40.675Z,99164.08
2017-09-03T05:51:08.190Z,99157.08
2017-09-03T05:53:35.649Z,99168.58
2017-09-03T05:56:03.161Z,99168.79
2017-09-03T05:58:30.674Z,99166.66
2017-09-03T06:00:58.155Z,99167.71
2017-09-03T06:03:25.642Z,99167.88
2017-09-03T06:05:53.093Z,99166.92
2017-09-03T06:08:20.600Z,99168.22
2017-09-03T06:10:48.077Z,99174.61
2017-09-03T06:13:15.582Z,99170.25
2017-09-03T06:15:43.069Z,99174.67
2017-09-03T06:18:10.573Z,99175.48
2017-09-03T06:20:38.043Z,99172.02
2017-09-03T06:23:05.530Z,99176.14
2017-09-03T06:25:33.042Z,99185.37
2017-09-03T06:28:00.551Z,99180.51
2017-09-03T06:30:28.042Z,99185.48
2017-09-03T06:32:55.616Z,99181.62
2017-09-03T06:35:23.126Z,99184.30
2017-09-03T06:37:50.630Z,99183.27
2017-09-03T06:40:18.104Z,99119.17
2017-09-03T06:42:45.625Z,99182.05
2017-09-03T06:45:13.097Z,99185.11
2017-09-03T06:47:40.601Z,99183.92
2017-09-03T06:50:08.050Z,99185.52
2017-09-03T06:52:35.567Z,99178.50
2017-09-03T06:55:03.061Z,99185.14
2017-09-03T06:57:30.572Z,99178.22
2017-09-03T06:59:58.095Z,99176.49
2017-09-03T07:02:25.587Z,99180.34
2017-09-03T07:04:53.870Z,99186.17
2017-09-03T07:07:21.342Z,99188.81
2017-09-03T07:09:48.866Z,99181.16
2017-09-03T07:12:16.326Z,99181.55
2017-09-03T07:14:43.809Z,99191.61
2017-09-03T07:17:11.273Z,99176.88
2017-09-03T07:19:38.767Z,99188.11
2017-09-03T07:22:06.254Z,99191.69
2017-09-03T07:24:33.763Z,99193.28
2017-09-03T07:27:01.236Z,99192.73
2017-09-03T07:29:28.708Z,99191.92
2017-09-03T07:31:56.254Z,99194.28
2017-09-03T07:34:23.724Z,99193.87
2017-09-03T07:36:51.226Z,99188.13
2017-09-03T07:39:18.723Z,99191.91
2017-09-03T07:41:46.221Z,99190.11
2017-09-03T07:44:13.697Z,99126.48
2017-09-03T07:46:41.219Z,99190.84
2017-09-03T07:49:08.681Z,99192.58
2017-09-03T07:51:36.178Z,99183.80
2017-09-03T07:54:03.677Z,99187.09
2017-09-03T07:56:31.168Z,99190.41
2017-09-03T07:58:58.664Z,99195.06
2017-09-03T08:01:26.173Z,99183.24
2017-09-03T08:03:53.630Z,99187.61
2017-09-03T08:06:21.112Z,99184.96
2017-09-03T08:08:48.599Z,99187.98
2017-09-03T08:11:16.116Z,99189.42
2017-09-03T08:13:43.592Z,99186.73
2017-09-03T08:16:11.108Z,99188.42
2017-09-03T08:18:38.584Z,99184.70
2017-09-03T08:21:06.110Z,99190.24
2017-09-03T08:23:33.639Z,99187.35
2017-09-03T08:26:01.134Z,99191.20
2017-09-03T08:28:28.634Z,99191.31
2017-09-03T08:30:56.588Z,99184.03
2017-09-03T08:33:24.099Z,99184.53
2017-09-03T08:35:51.571Z,99181.42
2017-09-03T08:38:19.077Z,99174.23
2017-09-03T08:40:46.558Z,99172.31
2017-09-03T08:43:14.042Z,99166.56
2017-09-03T08:45:41.508Z,99167.98
2017-09-03T08:48:08.999Z,99173.25
2017-09-03T08:50:36.586Z,99168.70
2017-09-03T08:53:05.094Z,99163.00
2017-09-03T08:55:32.577Z,99159.84
2017-09-03T08:58:00.104Z,99157.94
2017-09-03T09:00:27.587Z,99164.84
2017-09-03T09:02:55.127Z,99158.08
2017-09-03T09:05:22.642Z,99158.20
2017-09-03T09:07:50.149Z,99156.83
2017-09-03T09:10:17.629Z,99136.72
2017-09-03T09:12:45.135Z,99159.91
2017-09-03T09:15:12.627Z,99159.06
2017-09-03T09:17:40.124Z,99154.62
2017-09-03T09:20:07.595Z,99150.58
2017-09-03T09:22:35.113Z,99145.63
2017-09-03T09:25:02.596Z,99147.46
2017-09-03T09:27:30.925Z,99146.70
2017-09-03T09:29:58.435Z,99142.34
2017-09-03T09:32:25.914Z,99145.76
2017-09-03T09:34:53.415Z,99143.66
2017-09-03T09:37:21.016Z,99138.95
2017-09-03T09:39:48.542Z,99135.28
2017-09-03T09:42:16.090Z,99137.28
2017-09-03T09:44:43.618Z,99128.69
2017-09-03T09:47:11.125Z,99135.22
2017-09-03T09:49:38.659Z,99135.84
2017-09-03T09:52:06.121Z,99136.61
2017-09-03T09:54:33.613Z,99134.01
2017-09-03T09:57:01.084Z,99138.33
2017-09-03T09:59:28.601Z,99139.73
2017-09-03T10:01:56.263Z,99139.86
2017-09-03T10:04:23.734Z,99130.34
2017-09-03T10:06:51.273Z,99131.28
2017-09-03T10:09:18.807Z,99124.96
2017-09-03T10:11:47.352Z,99127.63
2017-09-03T10:14:15.801Z,99129.25
2017-09-03T10:16:43.314Z,99129.82
2017-09-03T10:19:10.806Z,99123.48
2017-09-03T10:21:38.337Z,99118.77
2017-09-03T10:24:05.838Z,99116.45
2017-09-03T10:26:33.341Z,99110.86
2017-09-03T10:29:00.835Z,99112.41
2017-09-03T10:31:28.304Z,99107.45
2017-09-03T10:33:55.833Z,99103.73
2017-09-03T10:36:23.352Z,99103.73
2017-09-03T10:38:50.873Z,99098.47
2017-09-03T10:41:18.361Z,99104.31
2017-09-03T10:43:45.842Z,99094.27
2017-09-03T10:46:13.331Z,99098.47
2017-09-03T10:48:40.823Z,99099.31
2017-09-03T10:51:12.759Z,99088.83
2017-09-03T10:53:40.310Z,99091.49
2017-09-03T10:56:07.795Z,99087.27
2017-09-03T10:58:35.334Z,99079.58
2017-09-03T11:01:02.836Z,99069.30
2017-09-03T11:03:30.304Z,99077.73
2017-09-03T11:05:57.818Z,99055.79
2017-09-03T11:08:25.334Z,99074.94
2017-09-03T11:10:52.856Z,99070.02
2017-09-03T11:13:20.503Z,99065.06
2017-09-03T11:15:47.989Z,99065.80
2017-09-03T11:18:15.445Z,99062.07
2017-09-03T11:20:42.938Z,99052.58
2017-09-03T11:23:10.429Z,99048.97
2017-09-03T11:25:38.736Z,99050.69
2017-09-03T11:28:06.245Z,99042.63
2017-09-03T11:30:33.749Z,99042.84
2017-09-03T11:33:01.230Z,99037.58
2017-09-03T11:35:28.764Z,99029.23
2017-09-03T11:37:56.268Z,99028.75
2017-09-03T11:40:25.055Z,99028.18
2017-09-03T11:42:52.553Z,99031.58
2017-09-03T11:45:20.049Z,99026.23
2017-09-03T11:47:47.541Z,99024.80
2017-09-03T11:50:15.008Z,99027.95
2017-09-03T11:52:42.515Z,99021.11
2017-09-03T11:55:10.027Z,99019.85
2017-09-03T11:57:37.559Z,99021.41
2017-09-03T12:00:05.028Z,99016.70
2017-09-03T12:02:32.533Z,99012.36
2017-09-03T12:04:59.991Z,99015.51
2017-09-03T12:07:27.478Z,99012.89
2017-09-03T12:09:54.945Z,99006.98
2017-09-03T12:12:22.462Z,99001.56
2017-09-03T12:14:49.973Z,99009.34
2017-09-03T12:17:17.480Z,99010.70
2017-09-03T12:19:44.973Z,99008.77
2017-09-03T12:22:12.426Z,98975.25
2017-09-03T12:24:40.462Z,98997.81
2017-09-03T12:27:07.922Z,99000.06
2017-09-03T12:29:35.416Z,98994.59
2017-09-03T12:32:02.962Z,98991.22
2017-09-03T12:34:30.504Z,98992.64
2017-09-03T12:36:58.046Z,98998.27
2017-09-03T12:39:25.818Z,99000.91
2017-09-03T12:41:53.291Z,98993.67
2017-09-03T12:44:20.790Z,98983.66
2017-09-03T12:46:48.260Z,98985.00
2017-09-03T12:49:15.789Z,98984.34
2017-09-03T12:51:43.311Z,98982.24
2017-09-03T12:54:10.802Z,98979.22
2017-09-03T12:56:38.302Z,98969.50
2017-09-03T12:59:05.776Z,98968.73
2017-09-03T13:01:33.546Z,98962.70
2017-09-03T13:04:01.783Z,98961.27
2017-09-03T13:06:29.265Z,98957.87
2017-09-03T13:08:56.747Z,98946.09
2017-09-03T13:11:24.217Z,98951.23
2017-09-03T13:13:51.745Z,98949.00
2017-09-03T13:16:19.216Z,98941.84
2017-09-03T13:18:46.731Z,98948.24
2017-09-03T13:21:14.223Z,98947.63
2017-09-03T13:23:41.743Z,98944.30
2017-09-03T13:26:09.231Z,98937.84
2017-09-03T13:28:36.816Z,98939.26
2017-09-03T13:31:04.736Z,98906.41
2017-09-03T13:33:32.259Z,98947.95
2017-09-03T13:35:59.834Z,98932.52
2017-09-03T13:38:27.506Z,98937.19
2017-09-03T13:40:55.045Z,98927.91
2017-09-03T13:43:22.526Z,98931.30
2017-09-03T13:45:50.005Z,98922.09
2017-09-03T13:48:17.484Z,98924.88
2017-09-03T13:50:45.034Z,98917.56
2017-09-03T13:53:12.562Z,98915.22
2017-09-03T13:55:40.104Z,98912.98
2017-09-03T13:58:07.596Z,98909.38
2017-09-03T14:00:35.111Z,98911.56
2017-09-03T14:03:02.612Z,98906.89
2017-09-03T14:05:31.247Z,98895.22
2017-09-03T14:07:58.740Z,98904.52
2017-09-03T14:10:26.247Z,98897.40
2017-09-03T14:12:53.750Z,98901.22
2017-09-03T14:15:21.205Z,98900.06
2017-09-03T14:17:48.730Z,98903.48
2017-09-03T14:20:16.541Z,98898.77
2017-09-03T14:22:44.054Z,98895.05
2017-09-03T14:25:11.518Z,98893.98
2017-09-03T14:27:39.029Z,98893.55
2017-09-03T14:30:06.557Z,98893.20
2017-09-03T14:32:34.021Z,98883.77
2017-09-03T14:35:01.505Z,98880.76
2017-09-03T14:37:28.986Z,98882.71
2017-09-03T14:39:56.935Z,98875.09
2017-09-03T14:42:24.429Z,98876.23
2017-09-03T14:44:52.062Z,98877.86
2017-09-03T14:47:19.543Z,98877.08
2017-09-03T14:49:47.020Z,98869.51
2017-09-03T14:52:15.487Z,98866.08
2017-09-03T14:54:42.972Z,98876.41
2017-09-03T14:57:11.179Z,98880.11
2017-09-03T14:59:38.670Z,98875.70
2017-09-03T15:02:06.192Z,98876.08
2017-09-03T15:04:33.687Z,98875.03
2017-09-03T15:07:01.222Z,98869.51
2017-09-03T15:09:28.762Z,98873.53
2017-09-03T15:11:56.269Z,98870.98
2017-09-03T15:14:23.770Z,98872.21
2017-09-03T15:16:51.248Z,98857.93
2017-09-03T15:19:18.733Z,98861.28
2017-09-03T15:21:46.263Z,98857.27
2017-09-03T15:24:13.758Z,98855.33
2017-09-03T15:26:41.263Z,98857.28
2017-09-03T15:29:08.769Z,98858.15
2017-09-03T15:31:36.250Z,98862.27
2017-09-03T15:34:03.784Z,98855.14
2017-09-03T15:36:31.265Z,98861.72
2017-09-03T15:38:58.781Z,98846.91
2017-09-03T15:41:26.260Z,98836.76
2017-09-03T15:43:54.378Z,98854.77
2017-09-03T15:46:21.861Z,98848.75
2017-09-03T15:48:49.433Z,98852.23
2017-09-03T15:51:16.963Z,98854.18
2017-09-03T15:53:44.455Z,98841.79
2017-09-03T15:56:11.919Z,98844.31
2017-09-03T15:58:39.410Z,98841.44
2017-09-03T16:01:07.538Z,98838.34
2017-09-03T16:03:35.029Z,98838.42
2017-09-03T16:06:02.518Z,98839.23
2017-09-03T16:08:30.145Z,98833.51
2017-09-03T16:10:58.394Z,98829.75
2017-09-03T16:13:25.913Z,98836.45
2017-09-03T16:15:53.435Z,98826.47
2017-09-03T16:18:20.927Z,98821.87
2017-09-03T16:20:48.448Z,98826.71
2017-09-03T16:23:15.909Z,98816.98
2017-09-03T16:25:43.407Z,98814.10
2017-09-03T16:28:10.921Z,98818.45
2017-09-03T16:30:40.211Z,98817.30
2017-09-03T16:33:07.763Z,98817.70
2017-09-03T16:35:35.292Z,98815.08
2017-09-03T16:38:02.817Z,98807.97
2017-09-03T16:40:30.309Z,98813.27
2017-09-03T16:42:57.928Z,98804.73
2017-09-03T16:45:25.405Z,98808.50
2017-09-03T16:47:52.905Z,98805.77
2017-09-03T16:50:20.391Z,98809.58
2017-09-03T16:52:47.881Z,98810.92
2017-09-03T16:55:15.401Z,98808.94
2017-09-03T16:57:42.879Z,98807.39
2017-09-03T17:00:10.390Z,98804.47
2017-09-03T17:02:37.857Z,98808.28
2017-09-03T17:05:05.817Z,98807.31
2017-09-03T17:07:33.311Z,98807.37
2017-09-03T17:10:00.783Z,98805.03
2017-09-03T17:12:28.318Z,98810.67
2017-09-03T17:14:55.798Z,98812.02
2017-09-03T17:17:29.209Z,98811.05
2017-09-03T17:19:56.754Z,98809.95
2017-09-03T17:22:24.674Z,98811.21
2017-09-03T17:24:52.184Z,98808.14
2017-09-03T17:27:19.690Z,98814.53
2017-09-03T17:29:47.185Z,98810.81
2017-09-03T17:32:14.703Z,98814.47
2017-09-03T17:34:47.669Z,98823.55
2017-09-03T17:37:19.554Z,98818.61
2017-09-03T17:39:47.054Z,98817.54
2017-09-03T17:42:24.555Z,98819.00
2017-09-03T17:44:52.062Z,98819.16
2017-09-03T17:47:19.562Z,98833.06
2017-09-03T17:49:47.076Z,98826.94
2017-09-03T17:52:14.614Z,98830.84
2017-09-03T17:54:42.141Z,98824.17
2017-09-03T17:57:10.087Z,98823.44
2017-09-03T17:59:37.602Z,98830.41
2017-09-03T18:02:05.107Z,98830.16
2017-09-03T18:04:33.123Z,98836.13
2017-09-03T18:07:00.605Z,98836.77
2017-09-03T18:09:28.089Z,98835.85
2017-09-03T18:11:56.353Z,98838.98
2017-09-03T18:14:28.707Z,98839.38
2017-09-03T18:16:56.214Z,98840.23
2017-09-03T18:19:24.355Z,98838.48
2017-09-03T18:21:53.049Z,98838.75
2017-09-03T18:24:20.534Z,98838.16
2017-09-03T18:26:48.067Z,98840.34
2017-09-03T18:29:18.084Z,98843.53
2017-09-03T18:31:45.926Z,98843.19
2017-09-03T18:34:13.402Z,98848.06
2017-09-03T18:36:45.282Z,98851.70
2017-09-03T18:42:15.169Z,98857.07
2017-09-03T18:44:42.632Z,98854.53
2017-09-03T18:47:10.782Z,98857.70
2017-09-03T18:49:41.707Z,98864.80
2017-09-03T18:52:10.990Z,98852.86
2017-09-03T18:54:39.399Z,98869.19
2017-09-03T18:57:06.889Z,98875.30
2017-09-03T18:59:34.365Z,98876.39
2017-09-03T19:02:01.858Z,98877.56
2017-09-03T19:04:35.399Z,98881.37
2017-09-03T19:07:02.899Z,98879.36
2017-09-03T19:09:36.115Z,98881.08
2017-09-03T19:12:03.576Z,98877.88
2017-09-03T19:14:31.083Z,98888.15
2017-09-03T19:16:58.634Z,98864.41
2017-09-03T19:19:26.103Z,98884.66
2017-09-03T19:21:54.409Z,98891.67
2017-09-03T19:24:21.880Z,98895.68
2017-09-03T19:26:49.377Z,98894.53
2017-09-03T19:29:18.315Z,98891.28
2017-09-03T19:31:45.830Z,98883.57
2017-09-03T19:34:13.311Z,98892.04
2017-09-03T19:36:40.778Z,98896.87
2017-09-03T19:39:08.256Z,98896.66
2017-09-03T19:41:35.721Z,98898.59
2017-09-03T19:44:03.239Z,98898.98
2017-09-03T19:46:30.711Z,98901.79
2017-09-03T19:48:58.198Z,98903.36
2017-09-03T19:51:25.666Z,98904.34
2017-09-03T19:53:53.165Z,98905.09
2017-09-03T19:56:20.691Z,98904.63
2017-09-03T19:58:48.157Z,98899.12
2017-09-03T20:01:15.668Z,98905.42
2017-09-03T20:03:43.146Z,98891.96
2017-09-03T20:06:10.659Z,98900.45
2017-09-03T20:08:38.122Z,98896.50
2017-09-03T20:11:05.611Z,98877.22
2017-09-03T20:13:33.101Z,98898.63
2017-09-03T20:16:00.592Z,98896.48
2017-09-03T20:18:28.124Z,98905.33
2017-09-03T20:20:55.594Z,98909.98
2017-09-03T20:23:23.082Z,98904.19
2017-09-03T20:25:50.550Z,98898.41
2017-09-03T20:28:18.043Z,98901.47
2017-09-03T20:30:45.541Z,98896.02
2017-09-03T20:33:13.082Z,98902.06
2017-09-03T20:35:40.550Z,98905.84
2017-09-03T20:38:08.254Z,98905.53
2017-09-03T20:40:35.728Z,98903.52
2017-09-03T20:43:03.241Z,98905.88
2017-09-03T20:45:30.764Z,98899.58
2017-09-03T20:47:58.231Z,98904.50
2017-09-03T20:50:25.743Z,98902.38
2017-09-03T20:52:53.228Z,98905.16
2017-09-03T20:55:20.842Z,98910.84
2017-09-03T20:57:48.295Z,98905.01
2017-09-03T21:00:15.762Z,98908.36
2017-09-03T21:02:43.260Z,98903.25
2017-09-03T21:05:10.739Z,98904.97
2017-09-03T21:07:38.230Z,98899.14
2017-09-03T21:10:05.687Z,98903.33
2017-09-03T21:12:33.177Z,98900.19
2017-09-03T21:15:00.671Z,98898.05
2017-09-03T21:17:28.172Z,98897.41
2017-09-03T21:19:55.633Z,98897.55
2017-09-03T21:22:23.278Z,98902.09
2017-09-03T21:24:50.739Z,98892.27
2017-09-03T21:27:18.225Z,98887.36
2017-09-03T21:29:45.702Z,98893.81
2017-09-03T21:32:13.175Z,98891.26
2017-09-03T21:34:41.749Z,98891.45
2017-09-03T21:37:09.209Z,98895.09
2017-09-03T21:39:36.695Z,98892.53
2017-09-03T21:42:04.146Z,98891.27
2017-09-03T21:44:31.787Z,98890.16
2017-09-03T21:46:59.268Z,98885.61
2017-09-03T21:49:26.727Z,98885.88
2017-09-03T21:51:54.229Z,98888.44
2017-09-03T21:54:21.700Z,98881.98
2017-09-03T21:56:49.174Z,98882.23
2017-09-03T21:59:16.661Z,98884.76
2017-09-03T22:01:44.142Z,98883.25
2017-09-03T22:04:11.635Z,98883.98
2017-09-03T22:06:39.089Z,98887.28
2017-09-03T22:09:06.580Z,98879.27
2017-09-03T22:11:34.039Z,98880.00
2017-09-03T22:14:01.518Z,98876.38
2017-09-03T22:16:28.981Z,98878.64
2017-09-03T22:18:56.487Z,98876.38
2017-09-03T22:21:23.946Z,98870.66
2017-09-03T22:23:51.439Z,98877.57
2017-09-03T22:26:18.924Z,98877.24
2017-09-03T22:28:46.389Z,98865.02
2017-09-03T22:31:13.878Z,98862.33
2017-09-03T22:33:41.331Z,98864.75
2017-09-03T22:36:08.838Z,98861.73
2017-09-03T22:38:36.302Z,98867.48
2017-09-03T22:41:04.448Z,98843.19
2017-09-03T22:43:31.929Z,98867.98
2017-09-03T22:45:59.415Z,98865.39
2017-09-03T22:48:26.878Z,98871.77
2017-09-03T22:50:54.414Z,98874.22
2017-09-03T22:53:21.902Z,98876.28
2017-09-03T22:55:49.362Z,98876.21
2017-09-03T22:58:16.851Z,98874.47
2017-09-03T23:00:44.302Z,98875.96
2017-09-03T23:03:11.804Z,98876.55
2017-09-03T23:05:39.266Z,98877.59
2017-09-03T23:08:06.884Z,98867.81
2017-09-03T23:10:34.334Z,98877.19
2017-09-03T23:13:01.809Z,98869.94
2017-09-03T23:15:29.294Z,98877.52
2017-09-03T23:17:56.795Z,98864.48
2017-09-03T23:20:24.309Z,98868.34
2017-09-03T23:22:51.770Z,98868.79
2017-09-03T23:25:19.241Z,98862.22
2017-09-03T23:27:46.697Z,98872.63
2017-09-03T23:30:14.182Z,98873.16
2017-09-03T23:32:41.644Z,98865.57
2017-09-03T23:35:09.232Z,98870.85
2017-09-03T23:37:36.686Z,98870.42
2017-09-03T23:40:05.078Z,98867.12
2017-09-03T23:42:32.635Z,98867.63
2017-09-03T23:45:00.085Z,98867.22
2017-09-03T23:47:27.569Z,98864.94
2017-09-03T23:49:55.051Z,98862.40
2017-09-03T23:52:22.830Z,98864.63
2017-09-03T23:54:50.290Z,98865.64
2017-09-03T23:57:17.773Z,98866.80
2017-09-03T23:59:45.242Z,98864.87
